createdAt,value
2023-05-22T00:01:52.983Z,47.78
2023-05-22T00:04:54.761Z,47.76
2023-05-22T00:07:56.726Z,47.79
2023-05-22T00:10:58.413Z,47.66
2023-05-22T00:14:00.088Z,47.85
2023-05-22T00:17:01.747Z,47.72
2023-05-22T00:20:08.348Z,48.13
2023-05-22T00:23:14.642Z,48.17
2023-05-22T00:26:17.254Z,47.93
2023-05-22T00:29:18.874Z,47.87
2023-05-22T00:32:20.497Z,47.87
2023-05-22T00:35:22.188Z,48.07
2023-05-22T00:38:34.189Z,48.20
2023-05-22T00:41:36.006Z,48.08
2023-05-22T00:44:37.640Z,47.94
2023-05-22T00:47:39.582Z,47.96
2023-05-22T00:50:42.311Z,48.23
2023-05-22T00:53:45.045Z,48.19
2023-05-22T00:56:48.351Z,48.28
2023-05-22T00:59:50.445Z,48.32
2023-05-22T01:02:52.221Z,48.49
2023-05-22T01:05:54.090Z,48.22
2023-05-22T01:08:55.666Z,48.33
2023-05-22T01:12:01.498Z,48.26
2023-05-22T01:15:21.966Z,48.27
2023-05-22T01:18:57.827Z,48.31
2023-05-22T01:22:21.645Z,48.33
2023-05-22T01:25:35.044Z,48.37
2023-05-22T01:28:36.584Z,48.54
2023-05-22T01:31:41.188Z,48.53
2023-05-22T01:34:45.209Z,48.49
2023-05-22T01:37:47.738Z,48.54
2023-05-22T01:40:50.006Z,48.66
2023-05-22T01:43:52.148Z,48.49
2023-05-22T01:46:54.116Z,48.43
2023-05-22T01:49:56.044Z,48.77
2023-05-22T01:53:20.062Z,48.68
2023-05-22T01:56:31.895Z,48.81
2023-05-22T01:59:40.027Z,48.76
2023-05-22T02:02:46.459Z,48.74
2023-05-22T02:05:53.144Z,48.85
2023-05-22T02:08:55.609Z,48.67
2023-05-22T02:11:59.140Z,48.90
2023-05-22T02:15:01.391Z,48.75
2023-05-22T02:18:03.237Z,48.98
2023-05-22T02:21:08.587Z,49.04
2023-05-22T02:24:10.836Z,49.09
2023-05-22T02:27:12.965Z,48.99
2023-05-22T02:30:15.343Z,48.91
2023-05-22T02:33:18.631Z,49.12
2023-05-22T02:36:20.709Z,49.07
2023-05-22T02:39:22.543Z,49.17
2023-05-22T02:42:24.421Z,49.11
2023-05-22T02:45:26.084Z,49.23
2023-05-22T02:48:29.376Z,49.12
2023-05-22T02:51:30.950Z,49.20
2023-05-22T02:54:32.537Z,49.09
2023-05-22T02:57:35.724Z,49.08
2023-05-22T03:00:41.368Z,49.04
2023-05-22T03:03:43.815Z,49.10
2023-05-22T03:06:46.731Z,49.05
2023-05-22T03:09:48.319Z,49.22
2023-05-22T03:12:51.851Z,49.04
2023-05-22T03:15:53.503Z,49.22
2023-05-22T03:19:16.355Z,49.09
2023-05-22T03:22:18.722Z,49.11
2023-05-22T03:25:21.588Z,49.17
2023-05-22T03:28:23.171Z,49.19
2023-05-22T03:31:26.180Z,49.23
2023-05-22T03:34:27.789Z,49.30
2023-05-22T03:37:29.532Z,49.22
2023-05-22T03:40:31.073Z,49.29
2023-05-22T03:43:32.703Z,49.26
2023-05-22T03:46:34.303Z,49.10
2023-05-22T03:49:36.057Z,49.27
2023-05-22T03:52:38.089Z,49.34
2023-05-22T03:55:39.854Z,49.01
2023-05-22T03:58:41.457Z,49.24
2023-05-22T04:01:43.068Z,49.34
2023-05-22T04:04:47.569Z,49.44
2023-05-22T04:07:49.194Z,49.28
2023-05-22T04:10:50.856Z,49.25
2023-05-22T04:13:52.432Z,49.27
2023-05-22T04:16:54.359Z,49.32
2023-05-22T04:19:58.209Z,49.30
2023-05-22T04:22:59.797Z,49.38
2023-05-22T04:26:02.700Z,49.31
2023-05-22T04:29:04.383Z,49.40
2023-05-22T04:32:06.409Z,49.38
2023-05-22T04:35:10.179Z,49.38
2023-05-22T04:38:11.816Z,49.46
2023-05-22T04:41:13.564Z,49.34
2023-05-22T04:44:15.123Z,49.40
2023-05-22T04:47:16.759Z,49.50
2023-05-22T04:50:18.880Z,49.42
2023-05-22T04:53:20.555Z,49.36
2023-05-22T04:56:35.332Z,49.35
2023-05-22T04:59:41.423Z,49.35
2023-05-22T05:02:43.320Z,49.39
2023-05-22T05:05:44.991Z,49.46
2023-05-22T05:08:48.025Z,49.40
2023-05-22T05:11:50.664Z,49.43
2023-05-22T05:14:52.285Z,49.39
2023-05-22T05:17:53.883Z,49.38
2023-05-22T05:20:55.645Z,49.42
2023-05-22T05:23:57.782Z,49.37
2023-05-22T05:27:00.049Z,49.33
2023-05-22T05:30:02.818Z,49.35
2023-05-22T05:33:05.573Z,49.42
2023-05-22T05:36:08.392Z,49.37
2023-05-22T05:39:10.852Z,49.40
2023-05-22T05:42:12.564Z,49.43
2023-05-22T05:45:15.905Z,49.40
2023-05-22T05:48:17.512Z,49.28
2023-05-22T05:51:20.336Z,49.17
2023-05-22T05:54:22.420Z,49.29
2023-05-22T05:57:24.065Z,49.18
2023-05-22T06:00:26.235Z,49.24
2023-05-22T06:03:27.900Z,49.28
2023-05-22T06:06:35.740Z,49.16
2023-05-22T06:09:37.278Z,49.27
2023-05-22T06:12:38.998Z,48.98
2023-05-22T06:15:41.312Z,49.09
2023-05-22T06:18:42.986Z,49.13
2023-05-22T06:21:44.558Z,49.14
2023-05-22T06:24:46.264Z,49.14
2023-05-22T06:27:47.812Z,49.03
2023-05-22T06:30:49.485Z,49.01
2023-05-22T06:33:52.072Z,49.12
2023-05-22T06:36:53.777Z,49.16
2023-05-22T06:39:55.418Z,49.18
2023-05-22T06:42:58.843Z,49.08
2023-05-22T06:46:00.526Z,49.16
2023-05-22T06:49:02.213Z,48.84
2023-05-22T06:52:05.330Z,49.08
2023-05-22T06:55:07.831Z,48.89
2023-05-22T06:58:09.483Z,49.09
2023-05-22T07:01:11.200Z,49.18
2023-05-22T07:04:13.473Z,48.94
2023-05-22T07:07:15.051Z,48.83
2023-05-22T07:10:16.632Z,48.95
2023-05-22T07:13:18.241Z,48.74
2023-05-22T07:16:19.904Z,48.85
2023-05-22T07:19:21.550Z,48.94
2023-05-22T07:22:23.192Z,48.89
2023-05-22T07:25:24.757Z,48.99
2023-05-22T07:28:26.713Z,48.89
2023-05-22T07:31:28.370Z,49.21
2023-05-22T07:34:34.485Z,49.16
2023-05-22T07:37:36.532Z,49.02
2023-05-22T07:40:38.410Z,48.96
2023-05-22T07:43:40.262Z,48.91
2023-05-22T07:46:41.866Z,49.01
2023-05-22T07:49:43.524Z,48.86
2023-05-22T07:52:45.149Z,49.09
2023-05-22T07:55:46.835Z,49.16
2023-05-22T08:01:50.579Z,48.79
2023-05-22T08:04:52.428Z,48.83
2023-05-22T08:07:54.094Z,48.96
2023-05-22T08:11:04.173Z,49.01
2023-05-22T08:14:06.473Z,48.99
2023-05-22T08:17:08.184Z,49.10
2023-05-22T08:20:11.023Z,49.21
2023-05-22T08:23:12.741Z,49.43
2023-05-22T08:26:15.045Z,49.36
2023-05-22T08:32:18.514Z,49.43
2023-05-22T08:35:20.109Z,49.56
2023-05-22T08:38:22.087Z,49.69
2023-05-22T08:41:23.804Z,49.68
2023-05-22T08:44:25.543Z,49.71
2023-05-22T08:47:28.551Z,49.77
2023-05-22T08:50:30.222Z,49.88
2023-05-22T08:53:35.852Z,50.11
2023-05-22T08:56:45.421Z,49.99
2023-05-22T08:59:54.929Z,49.97
2023-05-22T09:02:57.591Z,49.96
2023-05-22T09:05:59.820Z,50.23
2023-05-22T09:09:01.594Z,50.21
2023-05-22T09:12:04.493Z,50.09
2023-05-22T09:15:13.612Z,49.94
2023-05-22T09:18:15.237Z,50.10
2023-05-22T09:21:28.771Z,50.13
2023-05-22T09:24:31.302Z,50.13
2023-05-22T09:27:34.017Z,50.40
2023-05-22T09:30:36.541Z,50.24
2023-05-22T09:33:38.274Z,50.27
2023-05-22T09:36:40.750Z,50.32
2023-05-22T09:39:46.999Z,50.32
2023-05-22T09:42:48.633Z,50.60
2023-05-22T09:45:56.987Z,50.38
2023-05-22T09:49:01.640Z,50.52
2023-05-22T09:52:08.058Z,50.71
2023-05-22T09:55:10.766Z,50.46
2023-05-22T09:58:14.096Z,50.68
2023-05-22T10:01:17.003Z,50.43
2023-05-22T10:04:19.222Z,50.53
2023-05-22T10:07:37.838Z,50.84
2023-05-22T10:10:42.709Z,50.62
2023-05-22T10:13:47.531Z,50.58
2023-05-22T10:16:49.488Z,50.88
2023-05-22T10:19:53.303Z,50.95
2023-05-22T10:22:56.013Z,50.67
2023-05-22T10:25:57.969Z,50.95
2023-05-22T10:29:10.851Z,50.88
2023-05-22T10:32:37.089Z,50.78
2023-05-22T10:35:50.271Z,50.85
2023-05-22T10:39:23.894Z,51.21
2023-05-22T10:42:29.768Z,51.06
2023-05-22T10:45:32.033Z,51.04
2023-05-22T10:48:38.634Z,50.78
2023-05-22T10:51:40.499Z,51.07
2023-05-22T10:54:46.236Z,50.92
2023-05-22T10:57:48.405Z,51.01
2023-05-22T11:00:50.716Z,51.20
2023-05-22T11:03:59.469Z,51.20
2023-05-22T11:07:06.819Z,50.90
2023-05-22T11:10:08.576Z,51.02
2023-05-22T11:13:13.228Z,51.19
2023-05-22T11:16:16.037Z,51.29
2023-05-22T11:19:23.680Z,51.16
2023-05-22T11:22:50.158Z,51.35
2023-05-22T11:25:51.883Z,51.36
2023-05-22T11:28:53.922Z,51.30
2023-05-22T11:31:57.891Z,51.05
2023-05-22T11:35:00.308Z,51.47
2023-05-22T11:38:06.815Z,51.48
2023-05-22T11:41:11.738Z,51.43
2023-05-22T11:44:13.335Z,51.48
2023-05-22T11:47:15.335Z,51.16
2023-05-22T11:50:29.400Z,51.15
2023-05-22T11:53:36.147Z,50.97
2023-05-22T11:56:38.201Z,51.45
2023-05-22T11:59:40.080Z,51.24
2023-05-22T12:02:47.180Z,51.44
2023-05-22T12:05:51.064Z,51.31
2023-05-22T12:08:52.998Z,51.59
2023-05-22T12:11:56.643Z,51.28
2023-05-22T12:14:58.288Z,51.62
2023-05-22T12:17:59.873Z,51.29
2023-05-22T12:21:01.499Z,51.53
2023-05-22T12:24:04.777Z,51.67
2023-05-22T12:27:10.311Z,51.66
2023-05-22T12:30:15.596Z,51.47
2023-05-22T12:33:17.494Z,51.40
2023-05-22T12:36:19.256Z,51.87
2023-05-22T12:39:21.305Z,51.45
2023-05-22T12:42:23.048Z,51.77
2023-05-22T12:45:25.121Z,51.88
2023-05-22T12:48:26.759Z,51.54
2023-05-22T12:51:30.504Z,51.51
2023-05-22T12:54:32.071Z,51.90
2023-05-22T12:57:33.650Z,51.66
2023-05-22T13:00:35.754Z,52.00
2023-05-22T13:03:37.509Z,51.99
2023-05-22T13:06:39.121Z,51.81
2023-05-22T13:09:40.705Z,51.90
2023-05-22T13:12:43.162Z,51.88
2023-05-22T13:15:45.854Z,51.76
2023-05-22T13:18:47.988Z,51.77
2023-05-22T13:21:49.778Z,52.00
2023-05-22T13:24:51.372Z,51.80
2023-05-22T13:27:53.191Z,52.06
2023-05-22T13:30:54.924Z,51.69
2023-05-22T13:33:56.589Z,51.72
2023-05-22T13:36:58.407Z,51.68
2023-05-22T13:40:00.030Z,51.88
2023-05-22T13:43:01.686Z,51.98
2023-05-22T13:46:04.206Z,51.82
2023-05-22T13:49:05.830Z,51.88
2023-05-22T13:52:07.425Z,51.61
2023-05-22T13:55:09.136Z,51.62
2023-05-22T13:58:10.747Z,51.68
2023-05-22T14:01:12.419Z,51.65
2023-05-22T14:04:14.043Z,51.62
2023-05-22T14:07:16.030Z,51.90
2023-05-22T14:10:17.795Z,51.68
2023-05-22T14:13:19.445Z,52.02
2023-05-22T14:16:22.798Z,51.89
2023-05-22T14:19:24.714Z,51.95
2023-05-22T14:22:26.345Z,51.57
2023-05-22T14:25:27.983Z,51.88
2023-05-22T14:28:31.804Z,51.66
2023-05-22T14:31:44.946Z,51.70
2023-05-22T14:34:46.672Z,51.84
2023-05-22T14:37:48.342Z,51.53
2023-05-22T14:40:49.968Z,51.61
2023-05-22T14:43:51.584Z,51.81
2023-05-22T14:46:53.728Z,51.67
2023-05-22T14:49:57.657Z,51.65
2023-05-22T14:53:04.610Z,51.30
2023-05-22T14:56:06.338Z,51.31
2023-05-22T14:59:07.974Z,51.36
2023-05-22T15:02:09.669Z,51.61
2023-05-22T15:05:11.817Z,51.63
2023-05-22T15:08:13.569Z,51.62
2023-05-22T15:11:15.208Z,51.35
2023-05-22T15:14:17.239Z,51.60
2023-05-22T15:17:18.869Z,51.42
2023-05-22T15:20:20.636Z,51.21
2023-05-22T15:23:25.292Z,51.46
2023-05-22T15:26:27.037Z,50.94
2023-05-22T15:29:29.428Z,51.14
2023-05-22T15:32:33.912Z,51.17
2023-05-22T15:35:35.878Z,51.60
2023-05-22T15:38:37.518Z,51.24
2023-05-22T15:41:39.094Z,51.11
2023-05-22T15:44:40.691Z,51.55
2023-05-22T15:47:42.937Z,51.21
2023-05-22T15:50:44.691Z,51.45
2023-05-22T15:53:46.323Z,50.97
2023-05-22T15:56:47.935Z,51.09
2023-05-22T15:59:50.956Z,51.13
2023-05-22T16:02:53.077Z,51.45
2023-05-22T16:05:55.401Z,51.48
2023-05-22T16:08:56.987Z,51.22
2023-05-22T16:11:58.614Z,51.51
2023-05-22T16:15:01.273Z,51.58
2023-05-22T16:18:04.975Z,51.55
2023-05-22T16:21:07.051Z,51.34
2023-05-22T16:24:09.954Z,51.20
2023-05-22T16:27:11.559Z,51.17
2023-05-22T16:30:16.805Z,51.38
2023-05-22T16:33:18.728Z,51.31
2023-05-22T16:36:20.559Z,51.74
2023-05-22T16:39:22.196Z,51.28
2023-05-22T16:42:23.903Z,51.28
2023-05-22T16:45:25.582Z,51.52
2023-05-22T16:48:27.205Z,51.44
2023-05-22T16:51:28.915Z,51.46
2023-05-22T16:54:30.526Z,51.35
2023-05-22T16:57:32.149Z,51.49
2023-05-22T17:00:33.889Z,51.86
2023-05-22T17:03:36.053Z,51.68
2023-05-22T17:06:37.874Z,51.61
2023-05-22T17:09:39.774Z,51.56
2023-05-22T17:12:41.372Z,51.64
2023-05-22T17:15:43.034Z,52.02
2023-05-22T17:18:44.606Z,51.89
2023-05-22T17:21:46.214Z,51.88
2023-05-22T17:24:49.132Z,51.69
2023-05-22T17:27:50.812Z,51.69
2023-05-22T17:30:52.599Z,51.68
2023-05-22T17:33:54.439Z,51.84
2023-05-22T17:36:56.014Z,51.48
2023-05-22T17:39:57.680Z,52.11
2023-05-22T17:43:01.339Z,51.71
2023-05-22T17:46:03.205Z,52.03
2023-05-22T17:49:04.810Z,52.08
2023-05-22T17:52:08.550Z,51.85
2023-05-22T17:55:10.564Z,51.99
2023-05-22T17:58:13.166Z,52.05
2023-05-22T18:01:14.940Z,52.17
2023-05-22T18:04:16.559Z,52.10
2023-05-22T18:07:19.984Z,52.15
2023-05-22T18:10:24.745Z,51.91
2023-05-22T18:13:26.316Z,51.99
2023-05-22T18:16:28.048Z,52.18
2023-05-22T18:19:29.795Z,52.28
2023-05-22T18:22:31.528Z,51.77
2023-05-22T18:25:33.147Z,52.06
2023-05-22T18:28:34.759Z,52.28
2023-05-22T18:31:36.345Z,52.16
2023-05-22T18:34:37.957Z,51.77
2023-05-22T18:37:39.604Z,51.85
2023-05-22T18:40:41.479Z,52.21
2023-05-22T18:43:43.315Z,51.64
2023-05-22T18:46:44.951Z,52.27
2023-05-22T18:49:46.610Z,51.96
2023-05-22T18:52:48.247Z,51.93
2023-05-22T18:55:52.164Z,52.00
2023-05-22T18:58:55.573Z,52.07
2023-05-22T19:01:57.388Z,52.07
2023-05-22T19:04:59.109Z,52.34
2023-05-22T19:08:00.867Z,52.31
2023-05-22T19:11:02.604Z,52.11
2023-05-22T19:14:04.682Z,52.37
2023-05-22T19:17:06.411Z,52.43
2023-05-22T19:20:08.764Z,52.46
2023-05-22T19:23:11.715Z,52.24
2023-05-22T19:26:13.350Z,52.42
2023-05-22T19:29:14.973Z,52.38
2023-05-22T19:32:16.640Z,52.38
2023-05-22T19:35:18.285Z,52.10
2023-05-22T19:38:20.129Z,52.01
2023-05-22T19:41:23.136Z,52.20
2023-05-22T19:44:24.843Z,52.35
2023-05-22T19:47:27.314Z,52.43
2023-05-22T19:50:29.084Z,52.32
2023-05-22T19:53:34.195Z,52.68
2023-05-22T19:56:35.853Z,52.46
2023-05-22T20:02:40.040Z,52.16
2023-05-22T20:05:41.963Z,52.57
2023-05-22T20:08:44.289Z,52.21
2023-05-22T20:11:45.864Z,52.26
2023-05-22T20:14:47.709Z,52.36
2023-05-22T20:17:52.014Z,52.32
2023-05-22T20:20:53.737Z,52.63
2023-05-22T20:23:55.847Z,52.65
2023-05-22T20:26:57.732Z,52.51
2023-05-22T20:30:00.341Z,52.58
2023-05-22T20:33:03.758Z,52.57
2023-05-22T20:36:06.486Z,52.51
2023-05-22T20:39:10.935Z,52.37
2023-05-22T20:42:13.217Z,52.54
2023-05-22T20:45:16.025Z,52.62
2023-05-22T20:48:18.173Z,52.62
2023-05-22T20:51:21.001Z,52.60
2023-05-22T20:54:23.483Z,52.78
2023-05-22T20:57:25.680Z,52.47
2023-05-22T21:00:28.435Z,52.59
2023-05-22T21:03:30.928Z,52.71
2023-05-22T21:06:32.869Z,52.60
2023-05-22T21:09:34.957Z,52.92
2023-05-22T21:12:36.882Z,52.80
2023-05-22T21:15:39.538Z,52.65
2023-05-22T21:18:41.844Z,52.74
2023-05-22T21:21:44.398Z,52.85
2023-05-22T21:24:46.690Z,52.92
2023-05-22T21:27:49.466Z,52.88
2023-05-22T21:30:51.190Z,53.01
2023-05-22T21:33:52.746Z,52.96
2023-05-22T21:36:54.373Z,52.96
2023-05-22T21:39:55.990Z,53.04
2023-05-22T21:42:57.994Z,52.91
2023-05-22T21:45:59.596Z,53.18
2023-05-22T21:49:03.301Z,52.99
2023-05-22T21:52:05.116Z,53.05
2023-05-22T21:55:07.430Z,53.23
2023-05-22T21:58:10.331Z,53.11
2023-05-22T22:01:12.070Z,53.18
2023-05-22T22:04:13.686Z,52.90
2023-05-22T22:07:15.332Z,53.12
2023-05-22T22:10:17.008Z,53.30
2023-05-22T22:13:18.609Z,53.35
2023-05-22T22:16:22.137Z,53.09
2023-05-22T22:19:24.178Z,53.13
2023-05-22T22:22:26.028Z,53.04
2023-05-22T22:25:27.775Z,53.16
2023-05-22T22:28:29.414Z,53.15
2023-05-22T22:31:31.076Z,53.45
2023-05-22T22:34:32.704Z,53.58
2023-05-22T22:37:34.266Z,53.37
2023-05-22T22:40:35.908Z,53.64
2023-05-22T22:43:37.788Z,53.57
2023-05-22T22:46:39.403Z,53.54
2023-05-22T22:49:41.063Z,53.56
2023-05-22T22:52:45.794Z,53.46
2023-05-22T22:55:48.923Z,53.69
2023-05-22T22:58:51.234Z,53.64
2023-05-22T23:01:52.979Z,53.84
2023-05-22T23:04:54.669Z,53.99
2023-05-22T23:07:58.378Z,53.96
2023-05-22T23:11:00.169Z,53.71
2023-05-22T23:14:03.804Z,53.75
2023-05-22T23:17:05.826Z,53.90
2023-05-22T23:20:08.976Z,53.74
2023-05-22T23:23:10.593Z,54.07
2023-05-22T23:26:12.163Z,53.70
2023-05-22T23:29:13.761Z,54.04
2023-05-22T23:32:15.369Z,54.19
2023-05-22T23:35:17.100Z,54.15
2023-05-22T23:38:18.657Z,53.84
2023-05-22T23:41:20.263Z,54.19
2023-05-22T23:44:21.885Z,54.00
2023-05-22T23:47:23.539Z,53.84
2023-05-22T23:50:25.175Z,53.96
2023-05-22T23:53:26.758Z,54.14
2023-05-22T23:56:28.482Z,53.90
2023-05-22T23:59:30.108Z,54.15
